sensor_id;sensor_type;location;lat;lon;timestamp;temperature;humidity
33139;DHT22;19501;50.948;5.316;2023-08-20T00:02:02;20.30;99.90
33139;DHT22;19501;50.948;5.316;2023-08-20T00:04:28;20.40;99.90
33139;DHT22;19501;50.948;5.316;2023-08-20T00:06:56;20.40;99.90
33139;DHT22;19501;50.948;5.316;2023-08-20T00:09:22;20.50;99.90
33139;DHT22;19501;50.948;5.316;2023-08-20T00:11:51;20.50;99.90
33139;DHT22;19501;50.948;5.316;2023-08-20T00:14:17;20.50;99.90
33139;DHT22;19501;50.948;5.316;2023-08-20T00:16:44;20.50;99.90
33139;DHT22;19501;50.948;5.316;2023-08-20T00:19:10;20.50;99.90
33139;DHT22;19501;50.948;5.316;2023-08-20T00:21:42;20.40;99.90
33139;DHT22;19501;50.948;5.316;2023-08-20T00:24:10;20.30;99.90
33139;DHT22;19501;50.948;5.316;2023-08-20T00:26:36;20.30;99.90
33139;DHT22;19501;50.948;5.316;2023-08-20T00:29:02;20.40;99.90
33139;DHT22;19501;50.948;5.316;2023-08-20T00:31:27;20.50;99.90
33139;DHT22;19501;50.948;5.316;2023-08-20T00:33:53;20.50;99.90
33139;DHT22;19501;50.948;5.316;2023-08-20T00:36:19;20.40;99.90
33139;DHT22;19501;50.948;5.316;2023-08-20T00:38:44;20.30;99.90
33139;DHT22;19501;50.948;5.316;2023-08-20T00:41:10;20.30;99.90
33139;DHT22;19501;50.948;5.316;2023-08-20T00:43:38;20.30;99.90
33139;DHT22;19501;50.948;5.316;2023-08-20T00:46:04;20.30;99.90
33139;DHT22;19501;50.948;5.316;2023-08-20T00:48:30;20.20;99.90
33139;DHT22;19501;50.948;5.316;2023-08-20T00:50:57;20.20;99.90
33139;DHT22;19501;50.948;5.316;2023-08-20T00:53:23;20.10;99.90
33139;DHT22;19501;50.948;5.316;2023-08-20T00:55:48;20.00;99.90
33139;DHT22;19501;50.948;5.316;2023-08-20T00:58:14;20.00;99.90
33139;DHT22;19501;50.948;5.316;2023-08-20T01:00:40;20.00;99.90
33139;DHT22;19501;50.948;5.316;2023-08-20T01:03:06;20.10;99.90
33139;DHT22;19501;50.948;5.316;2023-08-20T01:05:35;20.10;99.90
33139;DHT22;19501;50.948;5.316;2023-08-20T01:08:14;20.10;99.90
33139;DHT22;19501;50.948;5.316;2023-08-20T01:11:08;20.00;99.90
33139;DHT22;19501;50.948;5.316;2023-08-20T01:13:38;19.80;99.90
33139;DHT22;19501;50.948;5.316;2023-08-20T01:16:06;19.60;99.90
33139;DHT22;19501;50.948;5.316;2023-08-20T01:18:32;19.50;99.90
33139;DHT22;19501;50.948;5.316;2023-08-20T01:21:02;19.40;99.90
33139;DHT22;19501;50.948;5.316;2023-08-20T01:23:39;19.50;99.90
33139;DHT22;19501;50.948;5.316;2023-08-20T01:26:32;19.60;99.90
33139;DHT22;19501;50.948;5.316;2023-08-20T01:29:01;19.60;99.90
33139;DHT22;19501;50.948;5.316;2023-08-20T01:31:28;19.60;99.90
33139;DHT22;19501;50.948;5.316;2023-08-20T01:33:54;19.70;99.90
33139;DHT22;19501;50.948;5.316;2023-08-20T01:36:19;19.80;99.90
33139;DHT22;19501;50.948;5.316;2023-08-20T01:38:45;20.00;99.90
33139;DHT22;19501;50.948;5.316;2023-08-20T01:41:11;20.00;99.90
33139;DHT22;19501;50.948;5.316;2023-08-20T01:43:36;20.00;99.90
33139;DHT22;19501;50.948;5.316;2023-08-20T01:46:02;20.00;99.90
33139;DHT22;19501;50.948;5.316;2023-08-20T01:48:27;20.00;99.90
33139;DHT22;19501;50.948;5.316;2023-08-20T01:50:53;20.00;99.90
33139;DHT22;19501;50.948;5.316;2023-08-20T01:53:21;20.00;99.90
33139;DHT22;19501;50.948;5.316;2023-08-20T01:55:47;19.80;99.90
33139;DHT22;19501;50.948;5.316;2023-08-20T01:58:15;19.60;99.90
33139;DHT22;19501;50.948;5.316;2023-08-20T02:00:40;19.50;99.90
33139;DHT22;19501;50.948;5.316;2023-08-20T02:03:06;19.40;99.90
33139;DHT22;19501;50.948;5.316;2023-08-20T02:05:32;19.30;99.90
33139;DHT22;19501;50.948;5.316;2023-08-20T02:07:57;19.30;99.90
33139;DHT22;19501;50.948;5.316;2023-08-20T02:10:23;19.50;99.90
33139;DHT22;19501;50.948;5.316;2023-08-20T02:12:50;19.50;99.90
33139;DHT22;19501;50.948;5.316;2023-08-20T02:15:15;19.60;99.90
33139;DHT22;19501;50.948;5.316;2023-08-20T02:17:41;19.60;99.90
33139;DHT22;19501;50.948;5.316;2023-08-20T02:20:07;19.50;99.90
33139;DHT22;19501;50.948;5.316;2023-08-20T02:22:35;19.50;99.90
33139;DHT22;19501;50.948;5.316;2023-08-20T02:25:01;19.40;99.90
33139;DHT22;19501;50.948;5.316;2023-08-20T02:27:27;19.40;99.90
33139;DHT22;19501;50.948;5.316;2023-08-20T02:29:52;19.30;99.90
33139;DHT22;19501;50.948;5.316;2023-08-20T02:32:18;19.50;99.90
33139;DHT22;19501;50.948;5.316;2023-08-20T02:34:44;19.50;99.90
33139;DHT22;19501;50.948;5.316;2023-08-20T02:37:10;19.50;99.90
33139;DHT22;19501;50.948;5.316;2023-08-20T02:39:35;19.30;99.90
33139;DHT22;19501;50.948;5.316;2023-08-20T02:42:01;19.30;99.90
33139;DHT22;19501;50.948;5.316;2023-08-20T02:44:27;19.10;99.90
33139;DHT22;19501;50.948;5.316;2023-08-20T02:46:52;19.10;99.90
33139;DHT22;19501;50.948;5.316;2023-08-20T02:49:18;18.90;99.90
33139;DHT22;19501;50.948;5.316;2023-08-20T02:51:46;18.90;99.90
33139;DHT22;19501;50.948;5.316;2023-08-20T02:54:14;19.10;99.90
33139;DHT22;19501;50.948;5.316;2023-08-20T02:56:39;19.30;99.90
33139;DHT22;19501;50.948;5.316;2023-08-20T02:59:05;19.40;99.90
33139;DHT22;19501;50.948;5.316;2023-08-20T03:01:31;19.20;99.90
33139;DHT22;19501;50.948;5.316;2023-08-20T03:03:56;19.40;99.90
33139;DHT22;19501;50.948;5.316;2023-08-20T03:06:22;19.50;99.90
33139;DHT22;19501;50.948;5.316;2023-08-20T03:08:47;19.60;99.90
33139;DHT22;19501;50.948;5.316;2023-08-20T03:11:13;19.80;99.90
33139;DHT22;19501;50.948;5.316;2023-08-20T03:13:39;19.70;99.90
33139;DHT22;19501;50.948;5.316;2023-08-20T03:16:05;19.90;99.90
33139;DHT22;19501;50.948;5.316;2023-08-20T03:18:30;19.90;99.90
33139;DHT22;19501;50.948;5.316;2023-08-20T03:20:56;19.80;99.90
33139;DHT22;19501;50.948;5.316;2023-08-20T03:23:23;19.70;99.90
33139;DHT22;19501;50.948;5.316;2023-08-20T03:25:48;19.70;99.90
33139;DHT22;19501;50.948;5.316;2023-08-20T03:28:15;19.50;99.90
33139;DHT22;19501;50.948;5.316;2023-08-20T03:30:41;19.60;99.90
33139;DHT22;19501;50.948;5.316;2023-08-20T03:33:06;19.60;99.90
33139;DHT22;19501;50.948;5.316;2023-08-20T03:35:32;19.40;99.90
33139;DHT22;19501;50.948;5.316;2023-08-20T03:37:57;19.30;99.90
33139;DHT22;19501;50.948;5.316;2023-08-20T03:40:23;19.40;99.90
33139;DHT22;19501;50.948;5.316;2023-08-20T03:42:49;19.40;99.90
33139;DHT22;19501;50.948;5.316;2023-08-20T03:45:15;19.40;99.90
33139;DHT22;19501;50.948;5.316;2023-08-20T03:47:43;19.40;99.90
33139;DHT22;19501;50.948;5.316;2023-08-20T03:50:09;19.40;99.90
33139;DHT22;19501;50.948;5.316;2023-08-20T03:52:35;19.40;99.90
33139;DHT22;19501;50.948;5.316;2023-08-20T03:55:01;19.40;99.90
33139;DHT22;19501;50.948;5.316;2023-08-20T03:57:27;19.30;99.90
33139;DHT22;19501;50.948;5.316;2023-08-20T03:59:53;19.20;99.90
33139;DHT22;19501;50.948;5.316;2023-08-20T04:02:18;19.20;99.90
33139;DHT22;19501;50.948;5.316;2023-08-20T04:04:44;19.20;99.90
33139;DHT22;19501;50.948;5.316;2023-08-20T04:07:10;19.20;99.90
33139;DHT22;19501;50.948;5.316;2023-08-20T04:09:36;19.30;99.90
33139;DHT22;19501;50.948;5.316;2023-08-20T04:12:04;19.10;99.90
33139;DHT22;19501;50.948;5.316;2023-08-20T04:14:29;19.20;99.90
33139;DHT22;19501;50.948;5.316;2023-08-20T04:16:55;19.10;99.90
33139;DHT22;19501;50.948;5.316;2023-08-20T04:19:21;19.10;99.90
33139;DHT22;19501;50.948;5.316;2023-08-20T04:21:46;19.00;99.90
33139;DHT22;19501;50.948;5.316;2023-08-20T04:24:12;19.10;99.90
33139;DHT22;19501;50.948;5.316;2023-08-20T04:26:40;19.00;99.90
33139;DHT22;19501;50.948;5.316;2023-08-20T04:29:06;18.80;99.90
33139;DHT22;19501;50.948;5.316;2023-08-20T04:31:32;18.70;99.90
33139;DHT22;19501;50.948;5.316;2023-08-20T04:33:58;18.80;99.90
33139;DHT22;19501;50.948;5.316;2023-08-20T04:36:24;18.80;99.90
33139;DHT22;19501;50.948;5.316;2023-08-20T04:38:49;18.80;99.90
33139;DHT22;19501;50.948;5.316;2023-08-20T04:41:15;18.70;99.90
33139;DHT22;19501;50.948;5.316;2023-08-20T04:43:41;18.70;99.90
33139;DHT22;19501;50.948;5.316;2023-08-20T04:46:06;18.70;99.90
33139;DHT22;19501;50.948;5.316;2023-08-20T04:48:33;18.60;99.90
33139;DHT22;19501;50.948;5.316;2023-08-20T04:50:59;18.70;99.90
33139;DHT22;19501;50.948;5.316;2023-08-20T04:53:25;18.70;99.90
33139;DHT22;19501;50.948;5.316;2023-08-20T04:55:51;18.70;99.90
33139;DHT22;19501;50.948;5.316;2023-08-20T04:58:17;18.70;99.90
33139;DHT22;19501;50.948;5.316;2023-08-20T05:00:42;18.80;99.90
33139;DHT22;19501;50.948;5.316;2023-08-20T05:03:08;18.90;99.90
33139;DHT22;19501;50.948;5.316;2023-08-20T05:05:34;18.80;99.90
33139;DHT22;19501;50.948;5.316;2023-08-20T05:07:59;18.50;99.90
33139;DHT22;19501;50.948;5.316;2023-08-20T05:10:25;18.40;99.90
33139;DHT22;19501;50.948;5.316;2023-08-20T05:12:51;18.30;99.90
33139;DHT22;19501;50.948;5.316;2023-08-20T05:15:16;18.40;99.90
33139;DHT22;19501;50.948;5.316;2023-08-20T05:17:42;18.40;99.90
33139;DHT22;19501;50.948;5.316;2023-08-20T05:20:08;18.60;99.90
33139;DHT22;19501;50.948;5.316;2023-08-20T05:22:34;18.70;99.90
33139;DHT22;19501;50.948;5.316;2023-08-20T05:25:00;18.90;99.90
33139;DHT22;19501;50.948;5.316;2023-08-20T05:27:26;19.00;99.90
33139;DHT22;19501;50.948;5.316;2023-08-20T05:29:51;19.10;99.90
33139;DHT22;19501;50.948;5.316;2023-08-20T05:32:19;19.10;99.90
33139;DHT22;19501;50.948;5.316;2023-08-20T05:34:45;19.10;99.90
33139;DHT22;19501;50.948;5.316;2023-08-20T05:37:13;19.10;99.90
33139;DHT22;19501;50.948;5.316;2023-08-20T05:39:43;19.20;99.90
33139;DHT22;19501;50.948;5.316;2023-08-20T05:42:08;19.20;99.90
33139;DHT22;19501;50.948;5.316;2023-08-20T05:44:34;19.20;99.90
33139;DHT22;19501;50.948;5.316;2023-08-20T05:47:00;19.20;99.90
33139;DHT22;19501;50.948;5.316;2023-08-20T05:49:26;19.30;99.90
33139;DHT22;19501;50.948;5.316;2023-08-20T05:51:52;19.30;99.90
33139;DHT22;19501;50.948;5.316;2023-08-20T05:54:18;19.50;99.90
33139;DHT22;19501;50.948;5.316;2023-08-20T05:56:44;19.50;99.90
33139;DHT22;19501;50.948;5.316;2023-08-20T05:59:09;19.40;99.90
33139;DHT22;19501;50.948;5.316;2023-08-20T06:01:35;19.30;99.90
33139;DHT22;19501;50.948;5.316;2023-08-20T06:04:01;19.30;99.90
33139;DHT22;19501;50.948;5.316;2023-08-20T06:06:27;19.50;99.90
33139;DHT22;19501;50.948;5.316;2023-08-20T06:08:53;19.70;99.90
33139;DHT22;19501;50.948;5.316;2023-08-20T06:11:20;19.80;99.90
33139;DHT22;19501;50.948;5.316;2023-08-20T06:13:45;19.90;99.90
33139;DHT22;19501;50.948;5.316;2023-08-20T06:16:11;20.10;99.90
33139;DHT22;19501;50.948;5.316;2023-08-20T06:18:37;20.20;99.90
33139;DHT22;19501;50.948;5.316;2023-08-20T06:21:03;20.40;99.90
33139;DHT22;19501;50.948;5.316;2023-08-20T06:23:29;20.40;99.90
33139;DHT22;19501;50.948;5.316;2023-08-20T06:25:54;20.40;99.90
33139;DHT22;19501;50.948;5.316;2023-08-20T06:28:21;20.40;99.90
33139;DHT22;19501;50.948;5.316;2023-08-20T06:30:47;20.50;99.90
33139;DHT22;19501;50.948;5.316;2023-08-20T06:33:13;20.60;99.90
33139;DHT22;19501;50.948;5.316;2023-08-20T06:35:39;20.60;99.90
33139;DHT22;19501;50.948;5.316;2023-08-20T06:38:05;20.60;99.90
33139;DHT22;19501;50.948;5.316;2023-08-20T06:40:31;20.70;99.90
33139;DHT22;19501;50.948;5.316;2023-08-20T06:42:57;20.70;99.90
33139;DHT22;19501;50.948;5.316;2023-08-20T06:45:22;20.80;99.90
33139;DHT22;19501;50.948;5.316;2023-08-20T06:47:48;20.80;99.90
33139;DHT22;19501;50.948;5.316;2023-08-20T06:50:13;20.80;99.90
33139;DHT22;19501;50.948;5.316;2023-08-20T06:52:39;20.90;99.90
33139;DHT22;19501;50.948;5.316;2023-08-20T06:55:05;20.90;99.90
33139;DHT22;19501;50.948;5.316;2023-08-20T06:57:31;20.90;99.90
33139;DHT22;19501;50.948;5.316;2023-08-20T06:59:56;20.90;99.90
33139;DHT22;19501;50.948;5.316;2023-08-20T07:02:22;20.90;99.90
33139;DHT22;19501;50.948;5.316;2023-08-20T07:04:48;21.00;99.90
33139;DHT22;19501;50.948;5.316;2023-08-20T07:07:14;21.20;99.90
33139;DHT22;19501;50.948;5.316;2023-08-20T07:09:40;21.30;99.90
33139;DHT22;19501;50.948;5.316;2023-08-20T07:12:06;21.40;99.90
33139;DHT22;19501;50.948;5.316;2023-08-20T07:14:32;21.50;99.90
33139;DHT22;19501;50.948;5.316;2023-08-20T07:16:57;21.60;99.90
33139;DHT22;19501;50.948;5.316;2023-08-20T07:19:25;21.60;99.90
33139;DHT22;19501;50.948;5.316;2023-08-20T07:21:50;21.70;99.90
33139;DHT22;19501;50.948;5.316;2023-08-20T07:24:16;21.80;99.90
33139;DHT22;19501;50.948;5.316;2023-08-20T07:26:42;21.80;99.90
33139;DHT22;19501;50.948;5.316;2023-08-20T07:29:07;21.80;99.90
33139;DHT22;19501;50.948;5.316;2023-08-20T07:31:33;21.70;99.90
33139;DHT22;19501;50.948;5.316;2023-08-20T07:34:01;21.70;99.90
33139;DHT22;19501;50.948;5.316;2023-08-20T07:36:27;21.80;99.90
33139;DHT22;19501;50.948;5.316;2023-08-20T07:38:53;22.00;99.90
33139;DHT22;19501;50.948;5.316;2023-08-20T07:41:19;22.20;99.90
33139;DHT22;19501;50.948;5.316;2023-08-20T07:43:47;22.40;99.90
33139;DHT22;19501;50.948;5.316;2023-08-20T07:46:13;22.60;99.90
33139;DHT22;19501;50.948;5.316;2023-08-20T07:48:39;22.70;99.90
33139;DHT22;19501;50.948;5.316;2023-08-20T07:51:05;22.30;99.90
33139;DHT22;19501;50.948;5.316;2023-08-20T07:53:32;22.00;99.90
33139;DHT22;19501;50.948;5.316;2023-08-20T07:55:59;22.10;99.90
33139;DHT22;19501;50.948;5.316;2023-08-20T07:58:25;22.30;99.90
33139;DHT22;19501;50.948;5.316;2023-08-20T08:00:51;22.30;99.90
33139;DHT22;19501;50.948;5.316;2023-08-20T08:03:16;22.50;99.90
33139;DHT22;19501;50.948;5.316;2023-08-20T08:05:47;22.50;99.90
33139;DHT22;19501;50.948;5.316;2023-08-20T08:08:13;22.70;99.90
33139;DHT22;19501;50.948;5.316;2023-08-20T08:10:39;22.90;99.90
33139;DHT22;19501;50.948;5.316;2023-08-20T08:13:04;23.00;99.90
33139;DHT22;19501;50.948;5.316;2023-08-20T08:15:30;23.10;99.90
33139;DHT22;19501;50.948;5.316;2023-08-20T08:17:56;23.10;99.90
33139;DHT22;19501;50.948;5.316;2023-08-20T08:20:22;22.90;99.90
33139;DHT22;19501;50.948;5.316;2023-08-20T08:22:47;22.90;99.90
33139;DHT22;19501;50.948;5.316;2023-08-20T08:25:13;22.80;99.90
33139;DHT22;19501;50.948;5.316;2023-08-20T08:27:39;22.60;99.90
33139;DHT22;19501;50.948;5.316;2023-08-20T08:30:05;22.60;99.90
33139;DHT22;19501;50.948;5.316;2023-08-20T08:32:31;22.90;99.90
33139;DHT22;19501;50.948;5.316;2023-08-20T08:34:56;23.10;99.90
33139;DHT22;19501;50.948;5.316;2023-08-20T08:37:24;23.40;99.90
33139;DHT22;19501;50.948;5.316;2023-08-20T08:39:50;23.40;99.90
33139;DHT22;19501;50.948;5.316;2023-08-20T08:42:16;23.60;99.90
33139;DHT22;19501;50.948;5.316;2023-08-20T08:44:43;23.20;99.90
33139;DHT22;19501;50.948;5.316;2023-08-20T08:47:10;23.30;99.90
33139;DHT22;19501;50.948;5.316;2023-08-20T08:49:37;23.50;99.90
33139;DHT22;19501;50.948;5.316;2023-08-20T08:52:05;23.70;99.90
33139;DHT22;19501;50.948;5.316;2023-08-20T08:54:35;23.90;99.90
33139;DHT22;19501;50.948;5.316;2023-08-20T08:57:01;24.00;99.90
33139;DHT22;19501;50.948;5.316;2023-08-20T08:59:27;24.10;99.90
33139;DHT22;19501;50.948;5.316;2023-08-20T09:01:52;23.80;99.90
33139;DHT22;19501;50.948;5.316;2023-08-20T09:04:18;23.70;99.90
33139;DHT22;19501;50.948;5.316;2023-08-20T09:06:52;24.00;99.90
33139;DHT22;19501;50.948;5.316;2023-08-20T09:09:18;24.00;99.90
33139;DHT22;19501;50.948;5.316;2023-08-20T09:11:45;24.00;99.90
33139;DHT22;19501;50.948;5.316;2023-08-20T09:14:27;24.40;99.90
33139;DHT22;19501;50.948;5.316;2023-08-20T09:16:54;24.70;99.90
33139;DHT22;19501;50.948;5.316;2023-08-20T09:19:19;24.80;99.90
33139;DHT22;19501;50.948;5.316;2023-08-20T09:21:48;24.70;99.90
33139;DHT22;19501;50.948;5.316;2023-08-20T09:24:15;24.70;99.90
33139;DHT22;19501;50.948;5.316;2023-08-20T09:26:45;24.70;99.90
33139;DHT22;19501;50.948;5.316;2023-08-20T09:29:11;24.60;99.90
33139;DHT22;19501;50.948;5.316;2023-08-20T09:31:42;24.60;99.90
33139;DHT22;19501;50.948;5.316;2023-08-20T09:34:12;24.70;99.90
33139;DHT22;19501;50.948;5.316;2023-08-20T09:36:39;24.80;99.90
33139;DHT22;19501;50.948;5.316;2023-08-20T09:39:05;24.90;99.90
33139;DHT22;19501;50.948;5.316;2023-08-20T09:41:30;24.70;99.90
33139;DHT22;19501;50.948;5.316;2023-08-20T09:43:58;24.90;99.90
33139;DHT22;19501;50.948;5.316;2023-08-20T09:46:26;25.30;99.90
33139;DHT22;19501;50.948;5.316;2023-08-20T09:48:55;25.10;99.90
33139;DHT22;19501;50.948;5.316;2023-08-20T09:51:25;24.90;99.90
33139;DHT22;19501;50.948;5.316;2023-08-20T09:57:12;25.50;99.90
33139;DHT22;19501;50.948;5.316;2023-08-20T09:59:41;25.70;99.90
33139;DHT22;19501;50.948;5.316;2023-08-20T10:02:10;25.50;99.90
33139;DHT22;19501;50.948;5.316;2023-08-20T10:04:40;25.60;99.90
33139;DHT22;19501;50.948;5.316;2023-08-20T10:07:06;25.50;99.90
33139;DHT22;19501;50.948;5.316;2023-08-20T10:09:32;25.60;99.90
33139;DHT22;19501;50.948;5.316;2023-08-20T10:11:58;25.70;99.90
33139;DHT22;19501;50.948;5.316;2023-08-20T10:14:24;25.80;99.90
33139;DHT22;19501;50.948;5.316;2023-08-20T10:16:51;25.90;99.90
33139;DHT22;19501;50.948;5.316;2023-08-20T10:19:20;26.30;99.90
33139;DHT22;19501;50.948;5.316;2023-08-20T10:21:47;26.60;99.90
33139;DHT22;19501;50.948;5.316;2023-08-20T10:24:19;26.90;99.90
33139;DHT22;19501;50.948;5.316;2023-08-20T10:26:50;26.90;99.90
33139;DHT22;19501;50.948;5.316;2023-08-20T10:29:40;27.10;99.90
33139;DHT22;19501;50.948;5.316;2023-08-20T10:32:13;27.00;99.90
33139;DHT22;19501;50.948;5.316;2023-08-20T10:34:42;27.30;99.90
33139;DHT22;19501;50.948;5.316;2023-08-20T10:37:14;27.70;99.90
33139;DHT22;19501;50.948;5.316;2023-08-20T10:39:40;27.80;99.90
33139;DHT22;19501;50.948;5.316;2023-08-20T10:45:07;26.80;99.90
33139;DHT22;19501;50.948;5.316;2023-08-20T10:47:42;27.00;99.90
33139;DHT22;19501;50.948;5.316;2023-08-20T10:50:10;27.90;99.90
33139;DHT22;19501;50.948;5.316;2023-08-20T10:52:41;28.20;99.90
33139;DHT22;19501;50.948;5.316;2023-08-20T10:55:09;29.00;99.90
33139;DHT22;19501;50.948;5.316;2023-08-20T10:57:36;29.30;99.90
33139;DHT22;19501;50.948;5.316;2023-08-20T11:00:05;29.60;99.90
33139;DHT22;19501;50.948;5.316;2023-08-20T11:02:41;28.90;99.90
33139;DHT22;19501;50.948;5.316;2023-08-20T11:05:18;29.60;99.90
33139;DHT22;19501;50.948;5.316;2023-08-20T11:07:45;29.50;99.90
33139;DHT22;19501;50.948;5.316;2023-08-20T11:10:15;30.90;99.90
33139;DHT22;19501;50.948;5.316;2023-08-20T11:12:50;31.60;99.90
33139;DHT22;19501;50.948;5.316;2023-08-20T11:15:17;31.50;99.90
33139;DHT22;19501;50.948;5.316;2023-08-20T11:17:45;32.40;99.90
33139;DHT22;19501;50.948;5.316;2023-08-20T11:20:13;33.10;99.90
33139;DHT22;19501;50.948;5.316;2023-08-20T11:22:40;33.20;99.90
33139;DHT22;19501;50.948;5.316;2023-08-20T11:25:12;30.90;99.90
33139;DHT22;19501;50.948;5.316;2023-08-20T11:27:44;31.90;99.90
33139;DHT22;19501;50.948;5.316;2023-08-20T11:30:12;31.70;99.90
33139;DHT22;19501;50.948;5.316;2023-08-20T11:32:40;32.80;99.90
33139;DHT22;19501;50.948;5.316;2023-08-20T11:35:07;32.90;99.90
33139;DHT22;19501;50.948;5.316;2023-08-20T11:37:34;32.70;99.90
33139;DHT22;19501;50.948;5.316;2023-08-20T11:39:59;32.60;99.90
33139;DHT22;19501;50.948;5.316;2023-08-20T11:42:25;32.80;99.90
33139;DHT22;19501;50.948;5.316;2023-08-20T11:44:55;33.30;99.90
33139;DHT22;19501;50.948;5.316;2023-08-20T11:47:21;34.20;99.90
33139;DHT22;19501;50.948;5.316;2023-08-20T11:49:46;34.80;99.90
33139;DHT22;19501;50.948;5.316;2023-08-20T11:52:12;35.00;99.50
33139;DHT22;19501;50.948;5.316;2023-08-20T11:54:42;35.50;98.90
33139;DHT22;19501;50.948;5.316;2023-08-20T11:57:08;36.20;97.10
33139;DHT22;19501;50.948;5.316;2023-08-20T11:59:34;36.90;95.90
33139;DHT22;19501;50.948;5.316;2023-08-20T12:02:02;36.80;95.00
33139;DHT22;19501;50.948;5.316;2023-08-20T12:04:31;36.10;94.70
33139;DHT22;19501;50.948;5.316;2023-08-20T12:07:13;37.00;94.80
33139;DHT22;19501;50.948;5.316;2023-08-20T12:09:40;36.00;93.30
33139;DHT22;19501;50.948;5.316;2023-08-20T12:12:07;36.00;93.90
33139;DHT22;19501;50.948;5.316;2023-08-20T12:14:33;35.80;93.90
33139;DHT22;19501;50.948;5.316;2023-08-20T12:16:58;35.80;92.80
33139;DHT22;19501;50.948;5.316;2023-08-20T12:19:27;35.20;93.30
33139;DHT22;19501;50.948;5.316;2023-08-20T12:21:55;35.20;93.20
33139;DHT22;19501;50.948;5.316;2023-08-20T12:24:22;36.00;92.90
33139;DHT22;19501;50.948;5.316;2023-08-20T12:26:48;37.30;93.40
33139;DHT22;19501;50.948;5.316;2023-08-20T12:29:13;38.50;92.10
33139;DHT22;19501;50.948;5.316;2023-08-20T12:31:40;38.10;90.50
33139;DHT22;19501;50.948;5.316;2023-08-20T12:34:06;38.20;90.50
33139;DHT22;19501;50.948;5.316;2023-08-20T12:36:33;38.90;89.50
33139;DHT22;19501;50.948;5.316;2023-08-20T12:38:59;39.10;88.60
33139;DHT22;19501;50.948;5.316;2023-08-20T12:41:24;38.90;87.80
33139;DHT22;19501;50.948;5.316;2023-08-20T12:43:50;40.10;86.90
33139;DHT22;19501;50.948;5.316;2023-08-20T12:46:17;39.60;86.80
33139;DHT22;19501;50.948;5.316;2023-08-20T12:48:43;39.40;86.50
33139;DHT22;19501;50.948;5.316;2023-08-20T12:51:08;39.30;84.80
33139;DHT22;19501;50.948;5.316;2023-08-20T12:53:37;39.20;87.00
33139;DHT22;19501;50.948;5.316;2023-08-20T12:56:03;39.00;84.80
33139;DHT22;19501;50.948;5.316;2023-08-20T12:58:29;38.00;85.90
33139;DHT22;19501;50.948;5.316;2023-08-20T13:00:55;38.80;85.80
33139;DHT22;19501;50.948;5.316;2023-08-20T13:03:20;39.60;82.80
33139;DHT22;19501;50.948;5.316;2023-08-20T13:05:46;39.60;82.50
33139;DHT22;19501;50.948;5.316;2023-08-20T13:08:12;39.80;81.60
33139;DHT22;19501;50.948;5.316;2023-08-20T13:10:40;39.30;81.10
33139;DHT22;19501;50.948;5.316;2023-08-20T13:13:09;39.70;80.90
33139;DHT22;19501;50.948;5.316;2023-08-20T13:15:35;39.30;81.30
33139;DHT22;19501;50.948;5.316;2023-08-20T13:18:01;39.50;81.70
33139;DHT22;19501;50.948;5.316;2023-08-20T13:20:27;38.70;82.40
33139;DHT22;19501;50.948;5.316;2023-08-20T13:22:53;38.70;81.10
33139;DHT22;19501;50.948;5.316;2023-08-20T13:25:19;39.20;80.90
33139;DHT22;19501;50.948;5.316;2023-08-20T13:27:49;39.90;79.10
33139;DHT22;19501;50.948;5.316;2023-08-20T13:30:15;39.00;75.60
33139;DHT22;19501;50.948;5.316;2023-08-20T13:32:40;37.50;77.10
33139;DHT22;19501;50.948;5.316;2023-08-20T13:35:06;36.60;79.80
33139;DHT22;19501;50.948;5.316;2023-08-20T13:37:35;36.00;80.80
33139;DHT22;19501;50.948;5.316;2023-08-20T13:40:01;35.00;82.70
33139;DHT22;19501;50.948;5.316;2023-08-20T13:42:29;34.50;82.80
33139;DHT22;19501;50.948;5.316;2023-08-20T13:44:55;34.00;81.70
33139;DHT22;19501;50.948;5.316;2023-08-20T13:47:20;34.10;84.20
33139;DHT22;19501;50.948;5.316;2023-08-20T13:49:46;33.90;83.50
33139;DHT22;19501;50.948;5.316;2023-08-20T13:52:12;33.50;81.50
33139;DHT22;19501;50.948;5.316;2023-08-20T13:54:37;33.30;83.20
33139;DHT22;19501;50.948;5.316;2023-08-20T13:57:03;32.70;83.10
33139;DHT22;19501;50.948;5.316;2023-08-20T13:59:30;32.60;83.20
33139;DHT22;19501;50.948;5.316;2023-08-20T14:01:56;32.10;84.40
33139;DHT22;19501;50.948;5.316;2023-08-20T14:04:21;32.30;84.90
33139;DHT22;19501;50.948;5.316;2023-08-20T14:06:47;32.60;85.30
33139;DHT22;19501;50.948;5.316;2023-08-20T14:09:13;32.30;85.70
33139;DHT22;19501;50.948;5.316;2023-08-20T14:11:39;31.80;87.00
33139;DHT22;19501;50.948;5.316;2023-08-20T14:14:05;32.00;87.40
33139;DHT22;19501;50.948;5.316;2023-08-20T14:16:31;31.80;87.30
33139;DHT22;19501;50.948;5.316;2023-08-20T14:18:57;31.40;88.30
33139;DHT22;19501;50.948;5.316;2023-08-20T14:21:22;31.00;89.90
33139;DHT22;19501;50.948;5.316;2023-08-20T14:23:48;31.00;89.30
33139;DHT22;19501;50.948;5.316;2023-08-20T14:26:14;31.40;88.80
33139;DHT22;19501;50.948;5.316;2023-08-20T14:28:41;31.60;87.60
33139;DHT22;19501;50.948;5.316;2023-08-20T14:31:08;31.40;87.80
33139;DHT22;19501;50.948;5.316;2023-08-20T14:33:34;31.30;88.90
33139;DHT22;19501;50.948;5.316;2023-08-20T14:36:00;31.40;90.20
33139;DHT22;19501;50.948;5.316;2023-08-20T14:38:27;31.80;89.90
33139;DHT22;19501;50.948;5.316;2023-08-20T14:40:53;31.50;89.20
33139;DHT22;19501;50.948;5.316;2023-08-20T14:43:18;31.20;89.70
33139;DHT22;19501;50.948;5.316;2023-08-20T14:45:45;30.90;90.00
33139;DHT22;19501;50.948;5.316;2023-08-20T14:48:10;30.90;90.50
33139;DHT22;19501;50.948;5.316;2023-08-20T14:50:36;31.10;89.80
33139;DHT22;19501;50.948;5.316;2023-08-20T14:53:02;31.50;88.00
33139;DHT22;19501;50.948;5.316;2023-08-20T14:55:28;31.40;88.10
33139;DHT22;19501;50.948;5.316;2023-08-20T14:57:53;31.20;89.00
33139;DHT22;19501;50.948;5.316;2023-08-20T15:00:19;31.40;90.10
33139;DHT22;19501;50.948;5.316;2023-08-20T15:02:47;31.20;89.60
33139;DHT22;19501;50.948;5.316;2023-08-20T15:05:13;31.40;89.90
33139;DHT22;19501;50.948;5.316;2023-08-20T15:07:39;31.50;90.00
33139;DHT22;19501;50.948;5.316;2023-08-20T15:10:06;31.60;90.60
33139;DHT22;19501;50.948;5.316;2023-08-20T15:12:36;32.00;90.30
33139;DHT22;19501;50.948;5.316;2023-08-20T15:15:05;32.10;90.20
33139;DHT22;19501;50.948;5.316;2023-08-20T15:17:32;31.80;90.10
33139;DHT22;19501;50.948;5.316;2023-08-20T15:19:58;32.00;89.70
33139;DHT22;19501;50.948;5.316;2023-08-20T15:22:24;32.40;90.40
33139;DHT22;19501;50.948;5.316;2023-08-20T15:24:50;32.70;89.20
33139;DHT22;19501;50.948;5.316;2023-08-20T15:27:18;32.80;88.20
33139;DHT22;19501;50.948;5.316;2023-08-20T15:29:47;32.70;88.10
33139;DHT22;19501;50.948;5.316;2023-08-20T15:32:15;32.20;87.90
33139;DHT22;19501;50.948;5.316;2023-08-20T15:34:40;31.90;89.30